Time;durP1;ratioP1;P1;durP2;ratioP2;P2;SDS_P1;SDS_P2;PMS_P1;PMS_P2;Temp;Humidity;BMP_temperature;BMP_pressure;BME280_temperature;BME280_humidity;BME280_pressure;Samples;Min_cycle;Max_cycle;Signal;HPM_P1;HPM_P2
2023/01/14 00:01:33;;;;;;;8.77;1.70;;;;;;;;;;4914177;29;20232;-62
2023/01/14 00:04:00;;;;;;;5.30;1.80;;;;;;;;;;4927044;29;20193;-62
2023/01/14 00:06:29;;;;;;;4.13;1.80;;;;;;;;;;4915046;29;20212;-62
2023/01/14 00:08:57;;;;;;;4.93;1.70;;;;;;;;;;4914906;29;20199;-62
2023/01/14 00:11:45;;;;;;;2.70;1.10;;;;;;;;;;4913771;29;20254;-62
2023/01/14 00:14:10;;;;;;;7.40;1.63;;;;;;;;;;4914999;29;20195;-62
2023/01/14 00:16:37;;;;;;;3.13;1.30;;;;;;;;;;4914199;29;20199;-62
2023/01/14 00:19:04;;;;;;;5.17;1.60;;;;;;;;;;4914816;29;20276;-62
2023/01/14 00:21:48;;;;;;;4.83;1.50;;;;;;;;;;4914882;29;20793;-62
2023/01/14 00:24:15;;;;;;;4.53;1.53;;;;;;;;;;4914739;29;20214;-63
2023/01/14 00:26:42;;;;;;;5.93;1.63;;;;;;;;;;4914318;29;20484;-62
2023/01/14 00:29:15;;;;;;;3.53;1.40;;;;;;;;;;4914738;29;20630;-62
2023/01/14 00:31:43;;;;;;;4.00;1.73;;;;;;;;;;4914943;29;20200;-62
2023/01/14 00:34:11;;;;;;;2.90;1.40;;;;;;;;;;4914916;29;20630;-62
2023/01/14 00:36:38;;;;;;;3.53;1.20;;;;;;;;;;4914595;29;20198;-62
2023/01/14 00:39:04;;;;;;;2.43;1.10;;;;;;;;;;4897157;29;20267;-62
2023/01/14 00:41:31;;;;;;;6.93;1.70;;;;;;;;;;4914406;29;20207;-62
2023/01/14 00:43:58;;;;;;;5.90;1.43;;;;;;;;;;4914732;29;20188;-62
2023/01/14 00:46:25;;;;;;;1.93;0.83;;;;;;;;;;4931191;29;20195;-62
2023/01/14 00:48:51;;;;;;;6.03;1.60;;;;;;;;;;4932104;29;20206;-62
2023/01/14 00:51:18;;;;;;;4.70;1.47;;;;;;;;;;4933173;29;20199;-62
2023/01/14 00:54:03;;;;;;;2.50;1.03;;;;;;;;;;4932895;29;20170;-62
2023/01/14 00:56:31;;;;;;;5.67;1.10;;;;;;;;;;4933011;29;20206;-62
2023/01/14 00:59:16;;;;;;;2.97;1.07;;;;;;;;;;4933053;29;20211;-62
2023/01/14 01:01:42;;;;;;;3.73;0.87;;;;;;;;;;4915810;29;20886;-62
2023/01/14 01:04:09;;;;;;;4.57;1.43;;;;;;;;;;4929118;29;20281;-62
2023/01/14 01:06:36;;;;;;;7.77;1.50;;;;;;;;;;4933015;29;20674;-62
2023/01/14 01:09:03;;;;;;;8.20;1.47;;;;;;;;;;4933074;29;20266;-62
2023/01/14 01:11:30;;;;;;;4.23;1.07;;;;;;;;;;4915749;29;20678;-62
2023/01/14 01:13:57;;;;;;;4.20;1.30;;;;;;;;;;4933377;29;20189;-61
2023/01/14 01:16:24;;;;;;;3.40;1.27;;;;;;;;;;4932844;29;20198;-62
2023/01/14 01:19:08;;;;;;;4.13;1.30;;;;;;;;;;4904059;29;20187;-62
2023/01/14 01:21:35;;;;;;;2.73;0.63;;;;;;;;;;4896689;29;20207;-63
2023/01/14 01:24:19;;;;;;;4.93;1.40;;;;;;;;;;4912110;29;20674;-62
2023/01/14 01:26:47;;;;;;;4.47;1.73;;;;;;;;;;4913360;29;20238;-62
2023/01/14 01:29:15;;;;;;;2.13;0.90;;;;;;;;;;4913785;29;20195;-62
2023/01/14 01:31:41;;;;;;;4.00;1.23;;;;;;;;;;4914068;29;20200;-62
2023/01/14 01:34:09;;;;;;;2.73;0.97;;;;;;;;;;4913739;29;20195;-62
2023/01/14 01:36:35;;;;;;;5.70;1.23;;;;;;;;;;4913593;29;20604;-62
2023/01/14 01:39:03;;;;;;;7.23;0.77;;;;;;;;;;4913356;29;20211;-62
2023/01/14 01:41:30;;;;;;;2.47;1.27;;;;;;;;;;4929292;29;20270;-62
2023/01/14 02:18:55;;;;;;;3.17;1.10;;;;;;;;;;4913145;29;20187;-62
2023/01/14 02:21:23;;;;;;;6.77;1.33;;;;;;;;;;4912000;29;20246;-62
2023/01/14 02:23:59;;;;;;;6.43;1.80;;;;;;;;;;4896147;29;20207;-62
2023/01/14 02:26:46;;;;;;;9.80;2.30;;;;;;;;;;4912679;29;20191;-62
2023/01/14 02:29:32;;;;;;;6.47;1.73;;;;;;;;;;4874791;29;20211;-62
2023/01/14 02:32:02;;;;;;;3.80;1.40;;;;;;;;;;4911953;29;20826;-62
2023/01/14 02:34:49;;;;;;;6.27;2.10;;;;;;;;;;4912306;29;20196;-62
2023/01/14 02:37:26;;;;;;;6.27;1.57;;;;;;;;;;4913775;29;20199;-62
2023/01/14 02:40:11;;;;;;;3.97;1.33;;;;;;;;;;4915748;29;20660;-62
2023/01/14 02:45:56;;;;;;;5.23;1.20;;;;;;;;;;4915868;29;20282;-63
2023/01/14 02:48:23;;;;;;;3.93;1.00;;;;;;;;;;4915076;29;20196;-63
2023/01/14 02:50:50;;;;;;;4.10;1.23;;;;;;;;;;4899562;29;20204;-62
2023/01/14 02:53:17;;;;;;;6.00;1.50;;;;;;;;;;4916800;29;20202;-63
2023/01/14 02:55:44;;;;;;;4.60;1.43;;;;;;;;;;4899353;29;20250;-64
2023/01/14 02:58:16;;;;;;;3.73;1.13;;;;;;;;;;4915126;29;20203;-62
2023/01/14 03:00:53;;;;;;;5.23;1.50;;;;;;;;;;4914693;29;20242;-62
2023/01/14 03:03:30;;;;;;;5.30;1.77;;;;;;;;;;4923492;29;20214;-63
2023/01/14 03:06:03;;;;;;;4.80;1.27;;;;;;;;;;4918149;29;20278;-62
2023/01/14 03:08:31;;;;;;;5.10;1.60;;;;;;;;;;4935347;29;20250;-63
2023/01/14 03:11:04;;;;;;;2.33;0.93;;;;;;;;;;4918028;29;21091;-63
2023/01/14 03:13:51;;;;;;;5.17;0.97;;;;;;;;;;4935504;29;20275;-62
2023/01/14 03:16:28;;;;;;;4.27;1.50;;;;;;;;;;4918521;29;20209;-61
2023/01/14 03:18:58;;;;;;;5.13;1.63;;;;;;;;;;4918025;29;20206;-61
2023/01/14 03:21:33;;;;;;;1.80;1.10;;;;;;;;;;4890608;29;20195;-61
2023/01/14 03:24:17;;;;;;;5.23;1.50;;;;;;;;;;4914864;29;20222;-62
2023/01/14 03:26:45;;;;;;;6.27;1.83;;;;;;;;;;4898401;29;20235;-61
2023/01/14 03:29:15;;;;;;;8.67;1.20;;;;;;;;;;4914682;29;20199;-61
2023/01/14 03:31:44;;;;;;;3.50;1.20;;;;;;;;;;4898890;29;20587;-61
2023/01/14 03:34:12;;;;;;;3.13;1.30;;;;;;;;;;4914827;29;20215;-62
2023/01/14 03:36:39;;;;;;;4.57;2.07;;;;;;;;;;4898672;29;20207;-61
2023/01/14 03:39:07;;;;;;;6.30;1.97;;;;;;;;;;4914429;29;20175;-62
2023/01/14 03:44:25;;;;;;;3.87;1.20;;;;;;;;;;4914654;29;20923;-62
2023/01/14 03:46:52;;;;;;;3.23;1.17;;;;;;;;;;4915613;29;20196;-62
2023/01/14 03:49:19;;;;;;;2.93;1.30;;;;;;;;;;4915340;29;20200;-61
2023/01/14 03:52:29;;;;;;;3.27;1.27;;;;;;;;;;4915155;29;20198;-62
2023/01/14 03:54:59;;;;;;;2.93;1.10;;;;;;;;;;4900399;29;20266;-61
2023/01/14 03:57:43;;;;;;;3.47;1.70;;;;;;;;;;4918280;29;20670;-61
2023/01/14 04:00:11;;;;;;;4.13;1.30;;;;;;;;;;4934352;29;20603;-62
2023/01/14 04:02:38;;;;;;;6.93;1.40;;;;;;;;;;4932835;29;20219;-62
2023/01/14 04:05:05;;;;;;;6.50;1.40;;;;;;;;;;4917253;29;20195;-62
2023/01/14 04:07:31;;;;;;;3.47;1.10;;;;;;;;;;4934606;29;20567;-61
2023/01/14 04:09:58;;;;;;;3.60;1.40;;;;;;;;;;4934394;29;20191;-62
2023/01/14 04:12:24;;;;;;;3.37;1.47;;;;;;;;;;4934002;29;20195;-61
2023/01/14 04:17:39;;;;;;;2.70;0.90;;;;;;;;;;4913949;29;20202;-61
2023/01/14 04:20:06;;;;;;;3.20;1.30;;;;;;;;;;4914856;29;20207;-62
2023/01/14 04:22:33;;;;;;;2.07;1.00;;;;;;;;;;4915179;29;20247;-62
2023/01/14 04:25:17;;;;;;;1.43;0.73;;;;;;;;;;4914785;29;20671;-63
2023/01/14 04:27:43;;;;;;;5.53;1.30;;;;;;;;;;4914430;29;20294;-62
2023/01/14 04:30:10;;;;;;;3.17;1.20;;;;;;;;;;4920046;29;20261;-62
2023/01/14 04:32:37;;;;;;;2.03;1.00;;;;;;;;;;4932488;29;20254;-62
2023/01/14 04:35:04;;;;;;;2.83;1.33;;;;;;;;;;4933435;29;20203;-62
2023/01/14 04:37:30;;;;;;;1.30;0.73;;;;;;;;;;4932945;29;20195;-62
2023/01/14 04:39:57;;;;;;;2.57;0.77;;;;;;;;;;4933774;29;20199;-62
2023/01/14 04:42:27;;;;;;;2.13;0.80;;;;;;;;;;4933108;29;20211;-62
2023/01/14 04:44:54;;;;;;;2.33;1.07;;;;;;;;;;4933551;29;20274;-62
2023/01/14 04:47:21;;;;;;;3.47;0.80;;;;;;;;;;4914621;29;20561;-62
2023/01/14 04:49:48;;;;;;;1.67;1.10;;;;;;;;;;4914679;29;20199;-62
2023/01/14 04:52:14;;;;;;;2.43;1.20;;;;;;;;;;4914250;29;20247;-62
2023/01/14 04:54:41;;;;;;;2.80;1.40;;;;;;;;;;4914364;29;20196;-62
2023/01/14 04:57:08;;;;;;;2.97;1.10;;;;;;;;;;4914072;29;20211;-62
2023/01/14 04:59:52;;;;;;;4.37;0.97;;;;;;;;;;4913646;29;20239;-62
2023/01/14 05:02:18;;;;;;;6.33;1.17;;;;;;;;;;4897569;29;20635;-62
2023/01/14 05:04:45;;;;;;;4.03;1.10;;;;;;;;;;4932152;29;20203;-62
2023/01/14 05:07:12;;;;;;;2.33;0.90;;;;;;;;;;4933035;29;20199;-62
2023/01/14 05:09:38;;;;;;;2.20;0.93;;;;;;;;;;4933161;29;20191;-62
2023/01/14 05:12:05;;;;;;;6.33;2.30;;;;;;;;;;4932865;29;20764;-62
2023/01/14 05:14:32;;;;;;;5.40;1.00;;;;;;;;;;4931812;29;20246;-62
2023/01/14 05:16:59;;;;;;;4.60;1.00;;;;;;;;;;4933192;29;20230;-62
2023/01/14 05:19:25;;;;;;;0.97;0.60;;;;;;;;;;4932108;29;20203;-61
2023/01/14 05:21:53;;;;;;;1.30;0.53;;;;;;;;;;4914006;29;20198;-62
2023/01/14 05:24:19;;;;;;;5.23;1.50;;;;;;;;;;4913658;29;20237;-62
2023/01/14 05:27:03;;;;;;;5.57;1.10;;;;;;;;;;4912180;29;20895;-62
2023/01/14 05:29:30;;;;;;;5.57;1.40;;;;;;;;;;4913955;29;20188;-62
2023/01/14 05:31:57;;;;;;;2.83;0.90;;;;;;;;;;4914037;29;20195;-63
2023/01/14 05:34:24;;;;;;;2.90;0.90;;;;;;;;;;4913744;29;20738;-62
2023/01/14 05:36:50;;;;;;;3.63;1.00;;;;;;;;;;4913163;29;20207;-62
2023/01/14 05:39:34;;;;;;;1.77;0.97;;;;;;;;;;4913734;29;20179;-61
2023/01/14 05:47:50;;;;;;;3.50;1.10;;;;;;;;;;4913633;29;20179;-61
2023/01/14 05:50:16;;;;;;;2.53;1.00;;;;;;;;;;4913662;29;20207;-61
2023/01/14 05:52:46;;;;;;;2.87;1.10;;;;;;;;;;4913656;29;20247;-62
2023/01/14 05:55:12;;;;;;;2.43;1.00;;;;;;;;;;4913787;29;20486;-62
2023/01/14 05:57:39;;;;;;;7.43;1.40;;;;;;;;;;4929739;29;20201;-62
2023/01/14 06:00:06;;;;;;;4.40;1.13;;;;;;;;;;4932440;29;20614;-62
2023/01/14 06:08:09;;;;;;;3.97;1.10;;;;;;;;;;4932379;29;20275;-62
2023/01/14 06:10:37;;;;;;;6.67;1.23;;;;;;;;;;4933571;29;20194;-62
2023/01/14 06:13:08;;;;;;;3.77;0.90;;;;;;;;;;4934832;29;20294;-62
2023/01/14 06:15:36;;;;;;;7.07;2.10;;;;;;;;;;4936326;29;20226;-62
2023/01/14 06:18:21;;;;;;;3.63;1.17;;;;;;;;;;4933500;29;20249;-61
2023/01/14 06:20:48;;;;;;;7.63;1.57;;;;;;;;;;4927762;29;20223;-62
2023/01/14 06:23:15;;;;;;;9.23;1.37;;;;;;;;;;4921187;29;20202;-62
2023/01/14 06:25:42;;;;;;;5.30;1.47;;;;;;;;;;4935893;29;20187;-62
2023/01/14 06:28:09;;;;;;;4.93;1.43;;;;;;;;;;4935291;29;20702;-62
2023/01/14 06:30:36;;;;;;;5.03;1.40;;;;;;;;;;4935800;29;20542;-62
2023/01/14 06:33:02;;;;;;;7.67;1.30;;;;;;;;;;4918154;29;20198;-62
2023/01/14 06:35:29;;;;;;;8.30;1.83;;;;;;;;;;4901555;29;20234;-62
2023/01/14 06:37:56;;;;;;;13.47;3.27;;;;;;;;;;4935322;29;20194;-62
2023/01/14 06:40:23;;;;;;;8.23;2.03;;;;;;;;;;4935303;29;20229;-62
2023/01/14 06:42:53;;;;;;;5.90;1.93;;;;;;;;;;4935033;29;20273;-63
2023/01/14 06:45:20;;;;;;;6.20;2.07;;;;;;;;;;4935356;29;20195;-62
2023/01/14 06:47:46;;;;;;;4.10;1.30;;;;;;;;;;4934918;29;20187;-61
2023/01/14 06:50:14;;;;;;;8.50;1.80;;;;;;;;;;4918123;29;20206;-62
2023/01/14 06:52:40;;;;;;;5.27;1.60;;;;;;;;;;4938096;29;20741;-62
2023/01/14 06:55:07;;;;;;;5.67;1.70;;;;;;;;;;4937807;28;20325;-61
2023/01/14 06:57:34;;;;;;;3.77;1.30;;;;;;;;;;4940907;29;20195;-61
2023/01/14 07:00:01;;;;;;;8.83;2.13;;;;;;;;;;4943348;29;20570;-61
2023/01/14 07:02:28;;;;;;;7.03;1.80;;;;;;;;;;4933251;29;20725;-61
2023/01/14 07:04:55;;;;;;;5.33;1.50;;;;;;;;;;4938023;28;20229;-62
2023/01/14 07:07:22;;;;;;;4.87;0.77;;;;;;;;;;4919737;29;20250;-63
2023/01/14 07:09:48;;;;;;;6.40;1.80;;;;;;;;;;4932887;29;20198;-62
2023/01/14 07:12:15;;;;;;;4.90;2.00;;;;;;;;;;4933523;29;20281;-62
2023/01/14 07:14:42;;;;;;;5.60;1.37;;;;;;;;;;4938018;29;20206;-62
2023/01/14 07:17:09;;;;;;;7.37;1.80;;;;;;;;;;4936758;29;20229;-62
2023/01/14 07:19:37;;;;;;;3.87;1.33;;;;;;;;;;4939004;29;20197;-63
2023/01/14 07:22:04;;;;;;;6.73;1.80;;;;;;;;;;4940250;28;20198;-63
2023/01/14 07:24:30;;;;;;;4.77;1.40;;;;;;;;;;4935188;28;20234;-62
2023/01/14 07:26:57;;;;;;;5.30;1.10;;;;;;;;;;4942387;28;20253;-61
2023/01/14 07:29:24;;;;;;;0.67;0.60;;;;;;;;;;4930708;29;20197;-62
2023/01/14 07:31:52;;;;;;;6.10;1.53;;;;;;;;;;4931679;29;20186;-61
2023/01/14 07:34:19;;;;;;;5.70;1.40;;;;;;;;;;4936617;29;20244;-61
2023/01/14 07:36:46;;;;;;;4.53;1.17;;;;;;;;;;4920879;29;20217;-61
2023/01/14 07:39:12;;;;;;;11.07;1.87;;;;;;;;;;4934623;29;20253;-61
2023/01/14 07:41:39;;;;;;;3.63;1.03;;;;;;;;;;4934637;29;20221;-62
2023/01/14 07:44:06;;;;;;;5.43;1.93;;;;;;;;;;4933380;29;20254;-61
2023/01/14 07:46:33;;;;;;;8.83;2.10;;;;;;;;;;4935107;29;21004;-62
2023/01/14 07:48:59;;;;;;;4.27;1.70;;;;;;;;;;4915511;29;20286;-63
2023/01/14 07:51:26;;;;;;;5.77;1.67;;;;;;;;;;4935450;29;20187;-60
2023/01/14 07:53:54;;;;;;;6.20;1.80;;;;;;;;;;4922361;29;20230;-62
2023/01/14 07:56:20;;;;;;;5.60;1.10;;;;;;;;;;4933023;29;20194;-62
2023/01/14 07:58:48;;;;;;;3.53;1.77;;;;;;;;;;4935934;29;20199;-63
2023/01/14 08:01:14;;;;;;;6.40;1.83;;;;;;;;;;4933470;29;20226;-60
2023/01/14 08:03:44;;;;;;;4.47;1.70;;;;;;;;;;4934704;29;20227;-61
2023/01/14 08:06:11;;;;;;;8.73;1.70;;;;;;;;;;4934215;29;20191;-61
2023/01/14 08:08:38;;;;;;;4.87;1.50;;;;;;;;;;4934508;29;20206;-61
2023/01/14 08:11:04;;;;;;;6.97;2.00;;;;;;;;;;4934558;29;20195;-61
2023/01/14 08:13:31;;;;;;;5.03;1.70;;;;;;;;;;4934614;29;20209;-61
2023/01/14 08:15:58;;;;;;;3.83;1.73;;;;;;;;;;4934752;29;20555;-61
2023/01/14 08:18:25;;;;;;;3.47;1.57;;;;;;;;;;4934884;29;20206;-61
2023/01/14 08:21:10;;;;;;;4.97;2.20;;;;;;;;;;4931940;29;20171;-61
2023/01/14 08:23:36;;;;;;;4.27;1.80;;;;;;;;;;4933885;29;20223;-60
2023/01/14 08:26:04;;;;;;;5.60;1.90;;;;;;;;;;4935971;29;20282;-61
2023/01/14 08:28:30;;;;;;;7.60;2.33;;;;;;;;;;4933855;29;20706;-61
2023/01/14 08:31:03;;;;;;;5.07;2.33;;;;;;;;;;4939754;29;20198;-61
2023/01/14 08:33:47;;;;;;;5.60;2.50;;;;;;;;;;4941703;28;20187;-61
2023/01/14 08:36:16;;;;;;;6.67;1.87;;;;;;;;;;4941555;29;20203;-60
2023/01/14 08:38:44;;;;;;;7.53;2.20;;;;;;;;;;4943776;29;20194;-61
2023/01/14 08:41:12;;;;;;;4.63;1.83;;;;;;;;;;4943300;29;20198;-61
2023/01/14 08:43:39;;;;;;;7.53;2.63;;;;;;;;;;4927661;29;20270;-61
2023/01/14 08:46:23;;;;;;;7.00;2.20;;;;;;;;;;4933338;29;20191;-61
2023/01/14 08:48:50;;;;;;;4.40;1.53;;;;;;;;;;4935028;29;20187;-61
2023/01/14 08:51:18;;;;;;;3.07;1.40;;;;;;;;;;4936164;28;20195;-60
2023/01/14 08:53:45;;;;;;;4.50;1.70;;;;;;;;;;4939568;29;20197;-61
2023/01/14 08:56:15;;;;;;;6.83;2.63;;;;;;;;;;4934321;29;20282;-61
2023/01/14 08:58:43;;;;;;;5.03;2.37;;;;;;;;;;4935783;29;20692;-61
2023/01/14 09:01:10;;;;;;;6.90;2.40;;;;;;;;;;4936588;29;20698;-60
2023/01/14 09:03:37;;;;;;;6.10;2.27;;;;;;;;;;4918439;29;20972;-61
2023/01/14 09:06:07;;;;;;;9.73;2.60;;;;;;;;;;4939022;29;20284;-61
2023/01/14 09:17:10;;;;;;;4.60;2.07;;;;;;;;;;4933246;29;20202;-62
2023/01/14 09:19:39;;;;;;;5.33;2.43;;;;;;;;;;4931244;29;20183;-61
2023/01/14 09:22:06;;;;;;;7.90;3.20;;;;;;;;;;4928613;29;20660;-61
2023/01/14 09:24:33;;;;;;;6.20;2.60;;;;;;;;;;4926963;29;20234;-61
2023/01/14 09:27:00;;;;;;;5.53;1.80;;;;;;;;;;4937931;28;20223;-61
2023/01/14 09:29:26;;;;;;;4.53;2.20;;;;;;;;;;4938407;29;20190;-61
2023/01/14 09:31:53;;;;;;;9.63;3.20;;;;;;;;;;4935967;29;20199;-61
2023/01/14 09:34:20;;;;;;;6.73;2.57;;;;;;;;;;4930929;29;20199;-61
2023/01/14 09:36:47;;;;;;;5.67;2.47;;;;;;;;;;4909425;29;20198;-62
2023/01/14 09:39:14;;;;;;;8.63;2.43;;;;;;;;;;4929231;29;20270;-61
2023/01/14 09:42:04;;;;;;;5.03;2.23;;;;;;;;;;4939513;29;20233;-61
2023/01/14 09:44:31;;;;;;;4.70;2.40;;;;;;;;;;4933196;29;20351;-61
2023/01/14 09:46:58;;;;;;;3.67;1.67;;;;;;;;;;4935157;28;20213;-61
2023/01/14 09:49:25;;;;;;;5.40;2.40;;;;;;;;;;4930345;29;20206;-62
2023/01/14 09:51:52;;;;;;;5.23;2.30;;;;;;;;;;4936503;28;20214;-61
2023/01/14 09:54:32;;;;;;;4.50;2.17;;;;;;;;;;4940781;28;20273;-61
2023/01/14 09:57:14;;;;;;;5.87;2.23;;;;;;;;;;4930475;29;20199;-61
2023/01/14 09:59:56;;;;;;;8.77;2.73;;;;;;;;;;4932536;29;20190;-62
2023/01/14 10:02:59;;;;;;;3.60;1.90;;;;;;;;;;4924134;29;20678;-62
2023/01/14 10:05:28;;;;;;;7.90;2.83;;;;;;;;;;4931298;29;20228;-61
2023/01/14 10:07:55;;;;;;;4.47;2.00;;;;;;;;;;4912009;29;20202;-62
2023/01/14 10:10:24;;;;;;;3.17;1.43;;;;;;;;;;4916515;29;20195;-61
2023/01/14 10:12:51;;;;;;;3.97;1.60;;;;;;;;;;4911325;29;20673;-63
2023/01/14 10:15:27;;;;;;;4.97;2.40;;;;;;;;;;4932632;29;20207;-61
2023/01/14 10:17:56;;;;;;;3.23;1.73;;;;;;;;;;4919126;29;20191;-61
2023/01/14 10:20:25;;;;;;;6.80;2.17;;;;;;;;;;4926531;28;20242;-62
2023/01/14 10:22:56;;;;;;;7.03;2.30;;;;;;;;;;4933523;29;20198;-61
2023/01/14 10:25:23;;;;;;;4.93;2.60;;;;;;;;;;4916520;29;20217;-61
2023/01/14 10:27:55;;;;;;;5.63;2.80;;;;;;;;;;4935693;29;20265;-61
2023/01/14 10:30:23;;;;;;;5.20;2.07;;;;;;;;;;4938020;29;20187;-61
2023/01/14 10:32:51;;;;;;;4.43;1.63;;;;;;;;;;4941529;28;20202;-61
2023/01/14 10:35:22;;;;;;;6.53;2.17;;;;;;;;;;4918034;29;20689;-61
2023/01/14 10:37:49;;;;;;;1.77;1.10;;;;;;;;;;4935102;29;20198;-62
2023/01/14 10:40:22;;;;;;;5.97;2.20;;;;;;;;;;4933579;29;20221;-61
2023/01/14 10:42:52;;;;;;;3.33;1.93;;;;;;;;;;4916786;29;20302;-61
2023/01/14 10:45:22;;;;;;;7.00;2.30;;;;;;;;;;4929685;29;20223;-61
2023/01/14 10:47:53;;;;;;;4.47;1.63;;;;;;;;;;4934931;29;20827;-61
2023/01/14 10:50:20;;;;;;;4.43;1.90;;;;;;;;;;4915666;29;20238;-62
2023/01/14 10:52:49;;;;;;;5.13;1.53;;;;;;;;;;4933610;29;20203;-62
2023/01/14 10:55:16;;;;;;;3.97;1.90;;;;;;;;;;4934087;29;20187;-61
2023/01/14 10:57:57;;;;;;;4.50;1.43;;;;;;;;;;4924220;28;20196;-61
2023/01/14 11:00:36;;;;;;;4.13;1.10;;;;;;;;;;4917805;29;20221;-60
2023/01/14 11:03:07;;;;;;;2.37;1.27;;;;;;;;;;4932768;29;20201;-60
2023/01/14 11:05:34;;;;;;;3.83;1.70;;;;;;;;;;4917692;29;20222;-61
2023/01/14 11:08:21;;;;;;;3.97;2.17;;;;;;;;;;4935299;29;20647;-61
2023/01/14 11:11:04;;;;;;;1.77;1.03;;;;;;;;;;4933403;29;20282;-61
2023/01/14 11:13:31;;;;;;;2.53;1.23;;;;;;;;;;4917749;29;20195;-61
2023/01/14 11:16:21;;;;;;;2.53;1.10;;;;;;;;;;4936508;29;20862;-60
2023/01/14 11:18:49;;;;;;;4.13;1.67;;;;;;;;;;4938690;29;20678;-60
2023/01/14 11:21:15;;;;;;;5.67;1.93;;;;;;;;;;4939029;29;20646;-61
2023/01/14 11:23:43;;;;;;;5.47;2.13;;;;;;;;;;4937135;29;20253;-61
2023/01/14 11:26:11;;;;;;;6.27;1.83;;;;;;;;;;4937142;29;20191;-61
2023/01/14 11:28:47;;;;;;;4.63;2.20;;;;;;;;;;4915524;29;20223;-63
2023/01/14 11:31:17;;;;;;;4.07;1.53;;;;;;;;;;4919915;29;20209;-62
2023/01/14 11:33:48;;;;;;;4.17;2.30;;;;;;;;;;4930890;28;20203;-64
2023/01/14 11:36:29;;;;;;;2.37;1.67;;;;;;;;;;4935324;29;20206;-62
2023/01/14 11:38:58;;;;;;;5.33;2.20;;;;;;;;;;4916664;29;20195;-61
2023/01/14 11:41:28;;;;;;;5.83;2.03;;;;;;;;;;4911803;28;20250;-61
2023/01/14 11:44:15;;;;;;;2.80;1.87;;;;;;;;;;4912446;29;20196;-62
2023/01/14 11:46:44;;;;;;;4.70;2.10;;;;;;;;;;4932360;29;20199;-62
2023/01/14 11:49:14;;;;;;;4.50;2.00;;;;;;;;;;4932933;29;20202;-61
2023/01/14 11:51:40;;;;;;;3.60;1.57;;;;;;;;;;4935056;29;20725;-62
2023/01/14 11:54:28;;;;;;;5.07;2.60;;;;;;;;;;4917775;29;20233;-61
2023/01/14 11:56:57;;;;;;;4.47;2.70;;;;;;;;;;4934529;29;20540;-62
2023/01/14 11:59:26;;;;;;;2.87;1.07;;;;;;;;;;4923136;29;20233;-61
2023/01/14 12:01:55;;;;;;;4.83;1.60;;;;;;;;;;4929037;29;20257;-63
2023/01/14 12:04:24;;;;;;;4.90;1.60;;;;;;;;;;4937199;29;20733;-63
2023/01/14 12:07:29;;;;;;;3.67;1.73;;;;;;;;;;4936453;29;20182;-62
2023/01/14 12:10:00;;;;;;;3.47;1.40;;;;;;;;;;4934655;28;20207;-62
2023/01/14 12:16:48;;;;;;;3.67;1.57;;;;;;;;;;4930582;29;20195;-63
2023/01/14 12:18:13;;;;;;;5.93;1.90;;;;;;;;;;4933223;29;20229;-63
2023/01/14 12:20:39;;;;;;;5.37;1.77;;;;;;;;;;4917679;29;20290;-62
2023/01/14 12:23:14;;;;;;;7.77;2.60;;;;;;;;;;4936234;29;20194;-62
2023/01/14 12:26:06;;;;;;;5.53;2.47;;;;;;;;;;4936473;29;20217;-63
2023/01/14 12:28:38;;;;;;;7.07;2.83;;;;;;;;;;4932162;29;20257;-62
2023/01/14 12:31:08;;;;;;;9.83;3.03;;;;;;;;;;4937441;29;20237;-62
2023/01/14 12:33:37;;;;;;;8.17;2.90;;;;;;;;;;4941718;29;20624;-61
2023/01/14 12:36:04;;;;;;;8.93;2.70;;;;;;;;;;4936420;29;20191;-60
2023/01/14 12:47:14;;;;;;;1.97;1.23;;;;;;;;;;4913683;29;20184;-61
2023/01/14 12:49:58;;;;;;;3.27;1.20;;;;;;;;;;4914918;29;20266;-61
2023/01/14 12:52:30;;;;;;;2.67;1.13;;;;;;;;;;4897466;29;20282;-61
2023/01/14 12:55:20;;;;;;;2.13;0.97;;;;;;;;;;4913197;29;20179;-60
2023/01/14 12:57:47;;;;;;;2.10;0.73;;;;;;;;;;4914101;29;20580;-60
2023/01/14 13:00:17;;;;;;;2.87;1.50;;;;;;;;;;4913626;29;20211;-61
2023/01/14 13:02:46;;;;;;;6.60;1.97;;;;;;;;;;4917942;29;20599;-61
2023/01/14 13:05:17;;;;;;;4.63;1.70;;;;;;;;;;4916540;29;20214;-60
2023/01/14 13:07:47;;;;;;;5.20;1.80;;;;;;;;;;4933671;29;20198;-61
2023/01/14 13:10:22;;;;;;;5.50;2.00;;;;;;;;;;4912316;29;20195;-60
2023/01/14 13:13:17;;;;;;;7.60;3.10;;;;;;;;;;4913106;29;20175;-61
2023/01/14 13:15:43;;;;;;;5.90;2.83;;;;;;;;;;4912779;29;20283;-61
2023/01/14 13:18:34;;;;;;;8.10;2.70;;;;;;;;;;4914052;29;20670;-61
2023/01/14 13:21:04;;;;;;;2.90;1.40;;;;;;;;;;4913377;29;20690;-61
2023/01/14 13:23:48;;;;;;;4.37;1.70;;;;;;;;;;4913817;29;20254;-61
2023/01/14 13:26:18;;;;;;;5.77;2.27;;;;;;;;;;4915908;29;20211;-61
2023/01/14 13:29:03;;;;;;;4.60;2.47;;;;;;;;;;4932974;29;20212;-61
2023/01/14 13:31:34;;;;;;;5.70;2.80;;;;;;;;;;4933093;29;20215;-61
2023/01/14 13:34:21;;;;;;;8.20;3.43;;;;;;;;;;4932816;29;20194;-61
2023/01/14 13:36:48;;;;;;;6.43;3.17;;;;;;;;;;4919955;29;20215;-60
2023/01/14 13:39:18;;;;;;;6.13;2.93;;;;;;;;;;4931659;29;20651;-60
2023/01/14 13:41:51;;;;;;;6.97;2.23;;;;;;;;;;4931448;29;20593;-61
2023/01/14 13:44:33;;;;;;;7.93;3.10;;;;;;;;;;4931383;29;20202;-61
2023/01/14 13:47:04;;;;;;;7.30;2.57;;;;;;;;;;4930468;29;20199;-61
2023/01/14 13:49:34;;;;;;;8.97;2.83;;;;;;;;;;4897145;29;20282;-61
2023/01/14 13:52:02;;;;;;;6.07;2.93;;;;;;;;;;4913502;29;20326;-61
2023/01/14 13:54:32;;;;;;;5.53;3.00;;;;;;;;;;4912300;29;20206;-61
2023/01/14 13:57:17;;;;;;;5.77;2.60;;;;;;;;;;4912400;29;20196;-60
2023/01/14 13:59:49;;;;;;;7.63;3.40;;;;;;;;;;4913246;29;20210;-61
2023/01/14 14:02:39;;;;;;;7.37;3.13;;;;;;;;;;4915466;29;20203;-61
2023/01/14 14:05:18;;;;;;;6.90;3.67;;;;;;;;;;4913338;29;20278;-60
2023/01/14 14:07:45;;;;;;;7.77;3.53;;;;;;;;;;4913216;29;20222;-61
2023/01/14 14:10:23;;;;;;;9.00;3.40;;;;;;;;;;4917238;29;20201;-60
2023/01/14 14:16:02;;;;;;;6.30;3.33;;;;;;;;;;4924843;29;20257;-60
2023/01/14 14:18:36;;;;;;;8.27;3.80;;;;;;;;;;4915450;29;20191;-60
2023/01/14 14:21:11;;;;;;;6.57;3.03;;;;;;;;;;4915568;29;20198;-61
2023/01/14 14:23:56;;;;;;;6.30;2.77;;;;;;;;;;4926936;29;20194;-61
2023/01/14 14:26:28;;;;;;;4.53;2.43;;;;;;;;;;4931352;29;20253;-61
2023/01/14 14:29:14;;;;;;;8.10;2.97;;;;;;;;;;4934784;29;20218;-61
2023/01/14 14:31:53;;;;;;;5.10;2.63;;;;;;;;;;4930277;29;20286;-61
2023/01/14 14:34:21;;;;;;;4.20;2.37;;;;;;;;;;4917379;29;20210;-63
2023/01/14 14:36:55;;;;;;;5.17;2.67;;;;;;;;;;4933933;29;20214;-61
2023/01/14 14:39:39;;;;;;;5.73;2.40;;;;;;;;;;4934206;29;20183;-61
2023/01/14 14:42:14;;;;;;;4.17;1.57;;;;;;;;;;4935035;29;20199;-62
2023/01/14 14:44:54;;;;;;;2.60;1.37;;;;;;;;;;4933220;29;20371;-61
2023/01/14 14:47:24;;;;;;;6.50;1.77;;;;;;;;;;4933593;29;20203;-62
2023/01/14 14:49:51;;;;;;;3.67;1.80;;;;;;;;;;4933907;29;20195;-61
2023/01/14 14:52:21;;;;;;;4.40;2.27;;;;;;;;;;4933485;29;20190;-62
2023/01/14 14:54:52;;;;;;;5.30;2.77;;;;;;;;;;4932251;29;20283;-61
2023/01/14 14:57:36;;;;;;;6.00;3.10;;;;;;;;;;4933491;29;20191;-62
2023/01/14 15:00:10;;;;;;;8.47;3.30;;;;;;;;;;4934010;29;20574;-61
2023/01/14 15:02:46;;;;;;;4.77;2.03;;;;;;;;;;4932628;29;20250;-61
2023/01/14 15:05:18;;;;;;;8.07;2.60;;;;;;;;;;4932598;29;20210;-61
2023/01/14 15:08:07;;;;;;;4.43;1.90;;;;;;;;;;4933854;29;20319;-61
2023/01/14 15:10:35;;;;;;;5.20;2.47;;;;;;;;;;4932739;29;20199;-63
2023/01/14 15:13:01;;;;;;;4.73;3.00;;;;;;;;;;4916450;29;20194;-61
2023/01/14 15:15:29;;;;;;;6.23;2.93;;;;;;;;;;4933862;29;20205;-62
2023/01/14 15:18:05;;;;;;;7.13;3.50;;;;;;;;;;4934189;29;20209;-61
2023/01/14 15:20:49;;;;;;;5.33;3.70;;;;;;;;;;4933337;29;20174;-61
2023/01/14 15:23:16;;;;;;;8.13;3.77;;;;;;;;;;4933468;29;20281;-61
2023/01/14 15:26:00;;;;;;;6.87;3.50;;;;;;;;;;4923337;29;20214;-61
2023/01/14 15:28:28;;;;;;;7.00;3.83;;;;;;;;;;4912350;29;20231;-61
2023/01/14 15:30:56;;;;;;;7.73;3.90;;;;;;;;;;4935419;29;20210;-61
2023/01/14 15:33:26;;;;;;;9.17;3.83;;;;;;;;;;4933029;29;20202;-61
2023/01/14 15:35:56;;;;;;;6.70;2.93;;;;;;;;;;4933109;29;20550;-61
2023/01/14 15:38:23;;;;;;;9.30;4.03;;;;;;;;;;4927701;29;20195;-62
2023/01/14 15:40:51;;;;;;;7.97;3.40;;;;;;;;;;4934087;29;20333;-61
2023/01/14 15:43:24;;;;;;;7.80;3.00;;;;;;;;;;4939459;28;20202;-61
2023/01/14 15:46:11;;;;;;;8.43;3.37;;;;;;;;;;4930019;29;20230;-61
2023/01/14 15:48:42;;;;;;;7.13;2.40;;;;;;;;;;4943001;28;20217;-61
2023/01/14 15:51:10;;;;;;;6.20;2.67;;;;;;;;;;4911123;29;20209;-61
2023/01/14 15:53:38;;;;;;;7.20;2.60;;;;;;;;;;4924054;28;20732;-60
2023/01/14 15:56:14;;;;;;;7.37;3.30;;;;;;;;;;4915040;29;20293;-61
2023/01/14 15:59:01;;;;;;;8.17;3.23;;;;;;;;;;4915361;29;20653;-62
2023/01/14 16:01:28;;;;;;;7.47;3.40;;;;;;;;;;4925140;29;20614;-61
2023/01/14 16:03:56;;;;;;;6.63;3.50;;;;;;;;;;4933790;29;20372;-62
2023/01/14 16:06:24;;;;;;;7.10;2.77;;;;;;;;;;4934019;29;20242;-62
2023/01/14 16:08:51;;;;;;;5.87;3.20;;;;;;;;;;4932509;29;20203;-62
2023/01/14 16:11:18;;;;;;;7.03;3.20;;;;;;;;;;4933405;29;20439;-62
2023/01/14 16:13:44;;;;;;;8.60;3.57;;;;;;;;;;4932303;29;20226;-61
2023/01/14 16:16:11;;;;;;;7.67;3.60;;;;;;;;;;4917107;29;20199;-63
2023/01/14 16:18:38;;;;;;;12.47;4.43;;;;;;;;;;4923561;29;20200;-63
2023/01/14 16:21:09;;;;;;;9.33;4.17;;;;;;;;;;4932575;29;20183;-62
2023/01/14 16:23:36;;;;;;;10.87;4.37;;;;;;;;;;4932536;29;20211;-62
2023/01/14 16:26:04;;;;;;;9.33;4.03;;;;;;;;;;4932103;29;20682;-62